createdAt,value
2022-09-04T00:02:17.366Z,17.68
2022-09-04T00:05:02.785Z,17.62
2022-09-04T00:07:41.299Z,17.58
2022-09-04T00:10:21.592Z,17.56
2022-09-04T00:12:57.094Z,17.53
2022-09-04T00:15:37.566Z,17.51
2022-09-04T00:18:15.409Z,17.48
2022-09-04T00:20:50.915Z,17.44
2022-09-04T00:23:29.337Z,17.44
2022-09-04T00:26:10.576Z,17.46
2022-09-04T00:28:44.630Z,17.47
2022-09-04T00:31:24.564Z,17.49
2022-09-04T00:34:07.593Z,17.48
2022-09-04T00:36:48.194Z,17.45
2022-09-04T00:39:29.285Z,17.42
2022-09-04T00:42:16.234Z,17.41
2022-09-04T00:44:57.257Z,17.40
2022-09-04T00:47:51.599Z,17.39
2022-09-04T00:50:56.361Z,17.38
2022-09-04T00:53:48.171Z,17.35
2022-09-04T00:56:41.233Z,17.30
2022-09-04T00:59:29.683Z,17.25
2022-09-04T01:02:11.711Z,17.19
2022-09-04T01:04:46.596Z,17.18
2022-09-04T01:07:40.089Z,17.15
2022-09-04T01:10:25.447Z,17.11
2022-09-04T01:13:03.936Z,17.13
2022-09-04T01:15:45.581Z,17.15
2022-09-04T01:18:21.530Z,17.15
2022-09-04T01:21:06.586Z,17.22
2022-09-04T01:24:07.429Z,17.22
2022-09-04T01:26:50.642Z,17.20
2022-09-04T01:29:31.536Z,17.17
2022-09-04T01:32:10.769Z,17.15
2022-09-04T01:34:48.364Z,17.14
2022-09-04T01:37:34.712Z,17.12
2022-09-04T01:40:35.679Z,17.16
2022-09-04T01:43:11.904Z,17.11
2022-09-04T01:46:08.194Z,17.08
2022-09-04T01:48:47.471Z,17.08
2022-09-04T01:51:25.855Z,17.07
2022-09-04T01:54:12.989Z,17.08
2022-09-04T01:56:48.604Z,17.08
2022-09-04T01:59:29.718Z,17.06
2022-09-04T02:02:05.982Z,17.08
2022-09-04T02:04:43.375Z,17.09
2022-09-04T02:07:22.788Z,17.04
2022-09-04T02:10:04.233Z,16.98
2022-09-04T02:12:42.658Z,16.93
2022-09-04T02:15:30.844Z,16.89
2022-09-04T02:18:12.605Z,16.87
2022-09-04T02:20:49.920Z,16.83
2022-09-04T02:23:30.282Z,16.80
2022-09-04T02:26:06.474Z,16.77
2022-09-04T02:28:47.746Z,16.75
2022-09-04T02:31:34.922Z,16.74
2022-09-04T02:34:11.770Z,16.71
2022-09-04T02:36:50.398Z,16.72
2022-09-04T02:39:36.316Z,16.70
2022-09-04T02:42:13.821Z,16.67
2022-09-04T02:44:52.850Z,16.68
2022-09-04T02:47:36.198Z,16.68
2022-09-04T02:50:16.594Z,16.64
2022-09-04T02:53:05.623Z,16.63
2022-09-04T02:55:52.588Z,16.60
2022-09-04T02:58:31.678Z,16.58
2022-09-04T03:01:08.446Z,16.55
2022-09-04T03:03:49.012Z,16.59
2022-09-04T03:06:30.552Z,16.57
2022-09-04T03:09:09.691Z,16.55
2022-09-04T03:11:44.057Z,16.52
2022-09-04T03:14:20.372Z,16.50
2022-09-04T03:16:58.783Z,16.47
2022-09-04T03:19:38.876Z,16.44
2022-09-04T03:22:16.254Z,16.44
2022-09-04T03:25:08.829Z,16.43
2022-09-04T03:27:39.273Z,16.46
2022-09-04T03:30:12.419Z,16.48
2022-09-04T03:32:54.599Z,16.47
2022-09-04T03:35:36.543Z,16.48
2022-09-04T03:38:24.345Z,16.44
2022-09-04T03:41:05.586Z,16.41
2022-09-04T03:43:49.759Z,16.38
2022-09-04T03:46:36.229Z,16.39
2022-09-04T03:49:16.596Z,16.42
2022-09-04T03:52:07.047Z,16.43
2022-09-04T03:54:50.737Z,16.43
2022-09-04T03:57:53.854Z,16.43
2022-09-04T04:00:25.159Z,16.38
2022-09-04T04:03:08.392Z,16.35
2022-09-04T04:05:56.734Z,16.33
2022-09-04T04:09:00.207Z,16.28
2022-09-04T04:11:55.103Z,16.24
2022-09-04T04:15:02.536Z,16.24
2022-09-04T04:17:51.164Z,16.28
2022-09-04T04:20:39.302Z,16.24
2022-09-04T04:23:28.654Z,16.21
2022-09-04T04:26:11.774Z,16.19
2022-09-04T04:29:02.505Z,16.18
2022-09-04T04:32:08.569Z,16.15
2022-09-04T04:34:50.001Z,16.13
2022-09-04T04:37:28.440Z,16.09
2022-09-04T04:40:05.864Z,16.06
2022-09-04T04:42:51.523Z,16.06
2022-09-04T04:45:43.342Z,16.06
2022-09-04T04:48:51.114Z,16.06
2022-09-04T04:51:45.773Z,16.03
2022-09-04T04:54:29.208Z,15.99
2022-09-04T04:57:04.350Z,15.98
2022-09-04T04:59:44.233Z,16.00
2022-09-04T05:02:25.189Z,16.02
2022-09-04T05:05:05.692Z,16.05
2022-09-04T05:07:43.461Z,16.05
2022-09-04T05:10:21.400Z,16.03
2022-09-04T05:13:12.097Z,16.03
2022-09-04T05:16:08.475Z,16.04
2022-09-04T05:18:48.165Z,16.07
2022-09-04T05:21:24.521Z,16.08
2022-09-04T05:24:05.528Z,16.08
2022-09-04T05:26:44.245Z,16.10
2022-09-04T05:29:19.236Z,16.11
2022-09-04T05:32:01.354Z,16.14
2022-09-04T05:34:43.926Z,16.15
2022-09-04T05:37:19.759Z,16.21
2022-09-04T05:40:04.627Z,16.24
2022-09-04T05:42:57.829Z,16.32
2022-09-04T05:45:39.993Z,16.39
2022-09-04T05:48:24.616Z,16.48
2022-09-04T05:51:08.389Z,16.55
2022-09-04T05:54:11.059Z,16.73
2022-09-04T05:57:15.795Z,16.88
2022-09-04T06:00:11.517Z,16.99
2022-09-04T06:03:14.544Z,17.11
2022-09-04T06:06:06.550Z,17.27
2022-09-04T06:08:58.891Z,17.35
2022-09-04T06:11:51.529Z,17.47
2022-09-04T06:14:54.633Z,17.62
2022-09-04T06:17:51.272Z,17.80
2022-09-04T06:20:36.859Z,17.98
2022-09-04T06:23:34.939Z,18.19
2022-09-04T06:26:21.734Z,18.41
2022-09-04T06:29:19.409Z,18.60
2022-09-04T06:32:15.376Z,18.79
2022-09-04T06:35:12.474Z,18.89
2022-09-04T06:37:57.506Z,19.08
2022-09-04T06:40:47.344Z,19.31
2022-09-04T06:43:29.766Z,19.42
2022-09-04T06:46:09.321Z,19.62
2022-09-04T06:48:55.039Z,19.81
2022-09-04T06:51:48.662Z,20.02
2022-09-04T06:54:37.249Z,20.17
2022-09-04T06:57:30.065Z,20.35
2022-09-04T07:00:08.380Z,20.48
2022-09-04T07:03:07.049Z,20.72
2022-09-04T07:05:49.495Z,20.93
2022-09-04T07:08:36.315Z,21.10
2022-09-04T07:11:17.669Z,21.36
2022-09-04T07:14:29.770Z,21.57
2022-09-04T07:17:09.117Z,21.69
2022-09-04T07:20:12.623Z,21.86
2022-09-04T07:23:17.651Z,22.13
2022-09-04T07:25:53.822Z,22.34
2022-09-04T07:28:39.242Z,22.22
2022-09-04T07:31:17.299Z,22.24
2022-09-04T07:34:01.783Z,22.51
2022-09-04T07:36:38.911Z,22.68
2022-09-04T07:39:17.247Z,22.39
2022-09-04T07:41:54.319Z,22.29
2022-09-04T07:44:29.714Z,22.37
2022-09-04T07:47:13.681Z,22.77
2022-09-04T07:49:54.629Z,23.02
2022-09-04T07:52:39.677Z,23.33
2022-09-04T07:55:28.902Z,23.66
2022-09-04T07:58:21.263Z,23.95
2022-09-04T08:01:06.871Z,24.18
2022-09-04T08:03:58.794Z,24.18
2022-09-04T08:06:35.329Z,24.20
2022-09-04T08:09:38.213Z,24.12
2022-09-04T08:12:35.403Z,24.30
2022-09-04T08:15:17.557Z,24.61
2022-09-04T08:18:21.310Z,24.64
2022-09-04T08:21:09.948Z,24.85
2022-09-04T08:24:05.403Z,24.64
2022-09-04T08:26:46.294Z,24.64
2022-09-04T08:29:29.813Z,24.61
2022-09-04T08:32:06.268Z,24.89
2022-09-04T08:35:00.901Z,25.20
2022-09-04T08:37:46.754Z,25.38
2022-09-04T08:40:42.880Z,25.69
2022-09-04T08:43:41.714Z,25.91
2022-09-04T08:46:39.313Z,26.04
2022-09-04T08:49:41.846Z,26.06
2022-09-04T08:52:38.981Z,26.35
2022-09-04T08:55:45.358Z,26.10
2022-09-04T08:58:55.507Z,26.20
2022-09-04T09:01:58.844Z,26.22
2022-09-04T09:04:55.145Z,26.13
2022-09-04T09:08:00.796Z,26.07
2022-09-04T09:11:03.970Z,26.38
2022-09-04T09:14:06.074Z,26.58
2022-09-04T09:16:46.232Z,26.57
2022-09-04T09:19:43.110Z,26.56
2022-09-04T09:22:19.608Z,26.82
2022-09-04T09:25:24.792Z,26.69
2022-09-04T09:28:26.996Z,26.69
2022-09-04T09:31:43.485Z,26.83
2022-09-04T09:34:43.675Z,26.54
2022-09-04T09:37:50.607Z,27.03
2022-09-04T09:40:45.181Z,27.24
2022-09-04T09:43:51.124Z,27.04
2022-09-04T09:46:55.043Z,26.92
2022-09-04T09:49:45.375Z,27.36
2022-09-04T09:52:39.658Z,27.59
2022-09-04T09:55:51.575Z,27.60
2022-09-04T09:58:54.405Z,27.80
2022-09-04T10:01:53.811Z,27.44
2022-09-04T10:04:55.747Z,27.17
2022-09-04T10:07:56.393Z,27.44
2022-09-04T10:11:00.054Z,27.73
2022-09-04T10:13:50.380Z,27.42
2022-09-04T10:16:44.965Z,27.66
2022-09-04T10:19:40.389Z,27.66
2022-09-04T10:22:43.323Z,27.79
2022-09-04T10:25:52.292Z,28.12
2022-09-04T10:29:10.470Z,28.32
2022-09-04T10:32:07.085Z,28.98
2022-09-04T10:35:11.827Z,29.21
2022-09-04T10:38:07.841Z,28.58
2022-09-04T10:40:51.409Z,28.07
2022-09-04T10:43:38.800Z,28.93
2022-09-04T10:46:22.782Z,28.53
2022-09-04T10:49:30.575Z,29.11
2022-09-04T10:52:30.412Z,28.88
2022-09-04T10:55:36.547Z,29.00
2022-09-04T10:58:31.309Z,28.92
2022-09-04T11:01:27.127Z,28.95
2022-09-04T11:04:18.062Z,28.91
2022-09-04T11:07:18.200Z,28.37
2022-09-04T11:10:01.277Z,28.55
2022-09-04T11:13:05.210Z,28.83
2022-09-04T11:16:00.837Z,28.68
2022-09-04T11:19:03.222Z,28.69
2022-09-04T11:22:12.790Z,28.91
2022-09-04T11:25:12.009Z,29.25
2022-09-04T11:28:28.475Z,29.26
2022-09-04T11:31:42.563Z,28.87
2022-09-04T11:34:45.838Z,28.63
2022-09-04T11:37:46.469Z,28.95
2022-09-04T11:40:40.400Z,28.98
2022-09-04T11:43:27.655Z,29.64
2022-09-04T11:46:30.320Z,28.72
2022-09-04T11:49:20.521Z,28.68
2022-09-04T11:52:16.789Z,28.36
2022-09-04T11:55:04.811Z,27.59
2022-09-04T11:57:45.668Z,28.05
2022-09-04T12:00:17.829Z,28.07
2022-09-04T12:03:20.703Z,27.98
2022-09-04T12:06:16.574Z,28.09
2022-09-04T12:09:14.522Z,28.20
2022-09-04T12:12:01.028Z,28.40
2022-09-04T12:15:07.306Z,28.58
2022-09-04T12:18:12.812Z,28.49
2022-09-04T12:21:31.075Z,28.83
2022-09-04T12:24:34.655Z,28.34
2022-09-04T12:27:44.446Z,28.13
2022-09-04T12:30:23.897Z,28.45
2022-09-04T12:33:30.780Z,28.63
2022-09-04T12:36:35.210Z,28.79
2022-09-04T12:39:38.838Z,28.73
2022-09-04T12:42:11.728Z,28.89
2022-09-04T12:44:50.560Z,28.54
2022-09-04T12:47:41.736Z,28.46
2022-09-04T12:50:36.218Z,28.48
2022-09-04T12:53:31.139Z,29.00
2022-09-04T12:56:12.303Z,28.89
2022-09-04T12:59:11.508Z,28.94
2022-09-04T13:02:00.559Z,29.11
2022-09-04T13:04:38.878Z,29.21
2022-09-04T13:07:30.111Z,29.02
2022-09-04T13:10:17.008Z,29.36
2022-09-04T13:12:58.658Z,29.14
2022-09-04T13:15:43.570Z,29.24
2022-09-04T13:18:35.086Z,29.23
2022-09-04T13:21:17.827Z,29.14
2022-09-04T13:24:01.041Z,29.28
2022-09-04T13:26:43.148Z,29.60
2022-09-04T13:29:26.390Z,29.71
2022-09-04T13:32:16.743Z,29.48
2022-09-04T13:35:08.492Z,29.29
2022-09-04T13:37:48.775Z,29.43
2022-09-04T13:40:28.985Z,29.41
2022-09-04T13:43:36.427Z,29.62
2022-09-04T13:46:14.591Z,29.39
2022-09-04T13:48:47.773Z,29.36
2022-09-04T13:51:24.169Z,29.50
2022-09-04T13:54:06.086Z,29.38
2022-09-04T13:56:38.079Z,29.36
2022-09-04T13:59:11.863Z,29.40
2022-09-04T14:01:49.425Z,29.19
2022-09-04T14:04:24.017Z,29.35
2022-09-04T14:06:56.401Z,29.33
2022-09-04T14:09:27.056Z,29.20
2022-09-04T14:12:18.687Z,29.34
2022-09-04T14:15:36.333Z,29.66
2022-09-04T14:18:25.379Z,29.77
2022-09-04T14:21:01.240Z,29.63
2022-09-04T14:23:45.030Z,29.67
2022-09-04T14:26:30.090Z,29.49
2022-09-04T14:29:09.338Z,30.01
2022-09-04T14:31:49.560Z,29.79
2022-09-04T14:34:36.499Z,29.78
2022-09-04T14:37:16.260Z,29.71
2022-09-04T14:39:56.189Z,29.79
2022-09-04T14:42:42.821Z,30.00
2022-09-04T14:45:21.273Z,29.65
2022-09-04T14:48:00.253Z,29.32
2022-09-04T14:50:36.909Z,29.34
2022-09-04T14:53:11.641Z,28.68
2022-09-04T14:55:45.224Z,28.83
2022-09-04T14:58:27.411Z,28.72
2022-09-04T15:01:07.138Z,28.67
2022-09-04T15:03:49.069Z,28.09
2022-09-04T15:06:32.406Z,28.22
2022-09-04T15:09:28.567Z,28.32
2022-09-04T15:12:24.131Z,28.32
2022-09-04T15:15:00.322Z,28.48
2022-09-04T15:17:35.667Z,28.66
2022-09-04T15:20:15.213Z,28.35
2022-09-04T15:22:55.808Z,28.42
2022-09-04T15:25:59.097Z,28.45
2022-09-04T15:28:38.701Z,28.59
2022-09-04T15:31:16.347Z,28.82
2022-09-04T15:33:49.626Z,28.69
2022-09-04T15:36:21.143Z,28.49
2022-09-04T15:38:57.118Z,28.52
2022-09-04T15:41:38.818Z,28.57
2022-09-04T15:44:18.038Z,28.42
2022-09-04T15:46:54.754Z,28.46
2022-09-04T15:49:42.661Z,28.50
2022-09-04T15:52:25.095Z,28.55
2022-09-04T15:55:23.851Z,28.44
2022-09-04T15:58:04.892Z,28.40
2022-09-04T16:00:40.596Z,28.27
2022-09-04T16:03:22.389Z,28.07
2022-09-04T16:05:57.478Z,28.09
2022-09-04T16:08:35.615Z,27.89
2022-09-04T16:11:16.710Z,27.71
2022-09-04T16:13:58.532Z,27.46
2022-09-04T16:16:37.222Z,27.65
2022-09-04T16:19:16.670Z,27.59
2022-09-04T16:21:55.431Z,27.54
2022-09-04T16:24:43.822Z,27.66
2022-09-04T16:27:19.490Z,27.50
2022-09-04T16:29:52.672Z,27.41
2022-09-04T16:32:26.341Z,27.34
2022-09-04T16:35:05.657Z,27.36
2022-09-04T16:37:50.078Z,27.27
2022-09-04T16:40:34.451Z,27.12
2022-09-04T16:43:19.009Z,26.75
2022-09-04T17:08:34.628Z,25.82
2022-09-04T17:12:08.563Z,25.67
2022-09-04T17:43:21.671Z,24.78
2022-09-04T17:45:56.213Z,24.73
2022-09-04T17:48:30.275Z,24.59
2022-09-04T17:51:05.706Z,24.51
2022-09-04T17:53:42.781Z,24.40
2022-09-04T17:56:24.880Z,24.31
2022-09-04T17:59:00.599Z,24.23
2022-09-04T18:01:38.454Z,24.15
2022-09-04T18:04:24.159Z,24.03
2022-09-04T18:07:22.008Z,23.94
2022-09-04T18:10:05.880Z,23.83
2022-09-04T18:12:43.315Z,23.73
2022-09-04T18:15:34.024Z,23.64
2022-09-04T18:18:15.087Z,23.56
2022-09-04T18:20:54.232Z,23.46
2022-09-04T18:23:51.236Z,23.34
2022-09-04T18:26:45.476Z,23.24
2022-09-04T18:37:22.651Z,22.84
2022-09-04T18:39:15.574Z,22.72
2022-09-04T18:47:00.311Z,22.60
2022-09-04T18:50:22.959Z,22.47
2022-09-04T18:50:36.654Z,22.30
2022-09-04T18:51:38.197Z,22.17
2022-09-04T18:54:22.605Z,22.04
2022-09-04T18:56:56.874Z,21.92
2022-09-04T18:59:36.075Z,21.80
2022-09-04T19:02:16.410Z,21.68
2022-09-04T19:04:56.140Z,21.57
2022-09-04T19:07:37.553Z,21.48
2022-09-04T19:10:24.774Z,21.37
2022-09-04T19:13:03.852Z,21.28
2022-09-04T19:15:53.957Z,21.21
2022-09-04T19:18:30.427Z,21.09
2022-09-04T19:21:57.894Z,21.01
2022-09-04T19:56:20.487Z,20.07
2022-09-04T19:59:30.554Z,20.00
2022-09-04T20:03:12.166Z,19.89
2022-09-04T20:09:38.313Z,19.73
2022-09-04T20:12:24.156Z,19.70
2022-09-04T20:15:05.383Z,19.65
2022-09-04T20:18:05.774Z,19.58
2022-09-04T20:20:48.640Z,19.54
2022-09-04T20:23:59.748Z,19.47
2022-09-04T20:26:39.817Z,19.42
2022-09-04T20:29:52.377Z,19.38
2022-09-04T20:32:32.117Z,19.33
2022-09-04T20:35:13.806Z,19.28
2022-09-04T20:37:53.411Z,19.22
2022-09-04T20:40:41.033Z,19.17
2022-09-04T20:43:53.816Z,19.13
2022-09-04T20:52:40.803Z,19.07
2022-09-04T20:53:07.000Z,19.02
2022-09-04T20:53:09.178Z,18.97
2022-09-04T20:55:55.005Z,18.93
2022-09-04T21:02:36.150Z,18.88
2022-09-04T21:03:07.336Z,18.84
2022-09-04T21:06:06.849Z,18.77
2022-09-04T21:11:59.080Z,18.68
2022-09-04T21:14:43.553Z,18.66
2022-09-04T21:17:45.341Z,18.61
2022-09-04T21:20:59.515Z,18.55
2022-09-04T21:24:11.802Z,18.51
2022-09-04T21:27:10.494Z,18.46
2022-09-04T21:30:00.271Z,18.41
2022-09-04T21:32:51.648Z,18.37
2022-09-04T21:35:29.162Z,18.35
2022-09-04T21:38:15.221Z,18.31
2022-09-04T21:41:12.956Z,18.26
2022-09-04T21:44:17.683Z,18.23
2022-09-04T21:47:08.712Z,18.16
2022-09-04T21:50:26.914Z,18.13
2022-09-04T21:53:32.804Z,18.12
2022-09-04T22:00:53.025Z,18.09
2022-09-04T22:02:35.358Z,18.05
2022-09-04T22:05:43.531Z,17.95
2022-09-04T22:13:26.126Z,17.92
2022-09-04T22:13:41.680Z,17.84
2022-09-04T22:14:45.698Z,17.84
2022-09-04T22:17:41.127Z,17.83
2022-09-04T22:20:24.267Z,17.81
2022-09-04T22:23:32.466Z,17.77
2022-09-04T22:26:28.620Z,17.73
2022-09-04T22:29:22.066Z,17.71
2022-09-04T22:32:36.301Z,17.70
2022-09-04T22:35:47.721Z,17.69
2022-09-04T22:38:35.917Z,17.67
2022-09-04T22:41:40.798Z,17.64
2022-09-04T22:44:25.961Z,17.62
2022-09-04T22:47:30.058Z,17.60
2022-09-04T22:50:50.207Z,17.59
2022-09-04T22:53:39.313Z,17.54
2022-09-04T22:56:24.065Z,17.49
2022-09-04T22:59:26.586Z,17.49
2022-09-04T23:02:47.020Z,17.49
2022-09-04T23:05:39.295Z,17.47
2022-09-04T23:13:48.028Z,17.46
2022-09-04T23:14:00.588Z,17.44
2022-09-04T23:15:08.358Z,17.39
2022-09-04T23:18:12.873Z,17.30
2022-09-04T23:26:37.701Z,17.28
2022-09-04T23:26:49.024Z,17.24
2022-09-04T23:27:34.336Z,17.17
2022-09-04T23:30:12.621Z,17.15
2022-09-04T23:33:09.913Z,17.10
2022-09-04T23:35:49.217Z,17.05
2022-09-04T23:38:57.417Z,17.01
2022-09-04T23:41:47.422Z,16.96
2022-09-04T23:44:46.789Z,16.88
2022-09-04T23:47:48.433Z,16.84
2022-09-04T23:50:31.966Z,16.81
2022-09-04T23:53:15.352Z,16.78
2022-09-04T23:56:04.832Z,16.74
2022-09-04T23:59:09.687Z,16.72
